createdAt,value
2022-10-20T00:00:04.715Z,86.50
2022-10-20T00:00:16.106Z,86.53
2022-10-20T00:00:24.745Z,86.61
2022-10-20T00:00:34.657Z,86.53
2022-10-20T00:00:44.685Z,86.58
2022-10-20T00:00:54.676Z,86.59
2022-10-20T00:01:04.688Z,86.54
2022-10-20T00:01:14.684Z,86.58
2022-10-20T00:01:26.122Z,86.59
2022-10-20T00:01:36.185Z,86.58
2022-10-20T00:01:44.724Z,86.61
2022-10-20T00:01:54.699Z,86.47
2022-10-20T00:02:04.674Z,86.60
2022-10-20T00:02:16.125Z,86.58
2022-10-20T00:02:25.169Z,86.69
2022-10-20T00:02:34.813Z,86.63
2022-10-20T00:02:46.156Z,86.69
2022-10-20T00:02:56.169Z,86.69
2022-10-20T00:03:04.664Z,86.69
2022-10-20T00:03:15.446Z,86.59
2022-10-20T00:03:24.709Z,86.65
2022-10-20T00:03:36.093Z,86.67
2022-10-20T00:03:44.646Z,86.64
2022-10-20T00:03:55.116Z,86.55
2022-10-20T00:04:04.649Z,86.56
2022-10-20T00:04:14.645Z,86.53
2022-10-20T00:04:24.719Z,86.52
2022-10-20T00:04:34.630Z,86.52
2022-10-20T00:04:44.646Z,86.46
2022-10-20T00:04:54.723Z,86.52
2022-10-20T00:05:04.711Z,86.49
2022-10-20T00:05:16.078Z,86.55
2022-10-20T00:05:25.096Z,86.58
2022-10-20T00:05:34.647Z,86.53
2022-10-20T00:05:44.628Z,86.52
2022-10-20T00:05:54.646Z,86.53
2022-10-20T00:06:04.663Z,86.54
2022-10-20T00:06:16.098Z,86.52
2022-10-20T00:06:25.476Z,86.64
2022-10-20T00:06:36.076Z,86.57
2022-10-20T00:06:44.625Z,86.58
2022-10-20T00:06:56.086Z,86.50
2022-10-20T00:07:04.669Z,86.62
2022-10-20T00:07:15.176Z,86.55
2022-10-20T00:07:26.068Z,86.60
2022-10-20T00:07:36.066Z,86.62
2022-10-20T00:07:44.628Z,86.61
2022-10-20T00:07:54.647Z,86.51
2022-10-20T00:08:04.678Z,86.53
2022-10-20T00:08:14.607Z,86.53
2022-10-20T00:08:24.815Z,86.49
2022-10-20T00:08:34.627Z,86.47
2022-10-20T00:08:44.742Z,86.46
2022-10-20T00:08:54.649Z,86.46
2022-10-20T00:09:04.813Z,86.49
2022-10-20T00:09:14.606Z,86.48
2022-10-20T00:09:26.357Z,86.42
2022-10-20T00:09:34.896Z,86.55
2022-10-20T00:09:44.598Z,86.47
2022-10-20T00:09:57.539Z,86.39
2022-10-20T00:10:07.109Z,86.63
2022-10-20T00:10:16.275Z,86.71
2022-10-20T00:10:24.806Z,86.52
2022-10-20T00:10:34.823Z,86.45
2022-10-20T00:10:45.787Z,86.48
2022-10-20T00:10:55.206Z,86.53
2022-10-20T00:11:06.248Z,86.50
2022-10-20T00:11:15.706Z,86.57
2022-10-20T00:11:26.263Z,86.49
2022-10-20T00:11:36.238Z,86.49
2022-10-20T00:11:45.747Z,86.50
2022-10-20T00:11:54.798Z,86.48
2022-10-20T00:12:04.820Z,86.43
2022-10-20T00:12:15.608Z,86.43
2022-10-20T00:12:24.816Z,86.46
2022-10-20T00:12:36.794Z,86.41
2022-10-20T00:12:44.797Z,86.44
2022-10-20T00:12:54.779Z,86.31
2022-10-20T00:13:04.799Z,86.26
2022-10-20T00:13:15.768Z,86.26
2022-10-20T00:13:24.813Z,86.32
2022-10-20T00:13:34.818Z,86.23
2022-10-20T00:13:44.797Z,86.23
2022-10-20T00:13:56.219Z,86.27
2022-10-20T00:14:04.788Z,86.37
2022-10-20T00:14:14.788Z,86.24
2022-10-20T00:14:26.246Z,86.27
2022-10-20T00:14:36.368Z,86.30
2022-10-20T00:14:44.799Z,86.31
2022-10-20T00:14:54.804Z,86.26
2022-10-20T00:15:04.792Z,86.30
2022-10-20T00:15:14.778Z,86.28
2022-10-20T00:15:24.798Z,86.29
2022-10-20T00:15:34.919Z,86.29
2022-10-20T00:15:46.218Z,86.37
2022-10-20T00:15:56.218Z,86.43
2022-10-20T00:16:06.239Z,86.48
2022-10-20T00:16:15.027Z,86.45
2022-10-20T00:16:24.789Z,86.41
2022-10-20T00:16:34.779Z,86.36
2022-10-20T00:16:44.796Z,86.42
2022-10-20T00:16:56.269Z,86.40
2022-10-20T00:17:04.747Z,86.54
2022-10-20T00:17:16.217Z,86.45
2022-10-20T00:17:25.722Z,86.62
2022-10-20T00:17:34.767Z,86.58
2022-10-20T00:17:44.786Z,86.60
2022-10-20T00:17:56.238Z,86.64
2022-10-20T00:18:05.711Z,86.73
2022-10-20T00:18:16.220Z,86.73
2022-10-20T00:18:26.208Z,86.83
2022-10-20T00:18:34.750Z,86.84
2022-10-20T00:18:46.189Z,86.77
2022-10-20T00:18:54.759Z,86.89
2022-10-20T00:19:06.231Z,86.82
2022-10-20T00:19:15.721Z,86.90
2022-10-20T00:19:24.749Z,86.87
2022-10-20T00:19:36.209Z,86.91
2022-10-20T00:19:44.740Z,87.00
2022-10-20T00:19:54.748Z,86.89
2022-10-20T00:20:04.782Z,86.95
2022-10-20T00:20:26.190Z,87.00
2022-10-20T00:20:34.751Z,87.10
2022-10-20T00:20:44.821Z,87.05
2022-10-20T00:20:56.169Z,87.01
2022-10-20T00:21:04.797Z,87.20
2022-10-20T00:21:14.728Z,87.10
2022-10-20T00:21:24.740Z,87.15
2022-10-20T00:21:34.729Z,87.16
2022-10-20T00:21:46.199Z,87.21
2022-10-20T00:21:54.720Z,87.29
2022-10-20T00:22:04.747Z,87.19
2022-10-20T00:22:14.738Z,87.20
2022-10-20T00:22:25.691Z,87.27
2022-10-20T00:22:35.136Z,87.36
2022-10-20T00:22:44.748Z,87.31
2022-10-20T00:22:56.230Z,87.29
2022-10-20T00:23:06.180Z,87.40
2022-10-20T00:23:14.729Z,87.38
2022-10-20T00:23:25.525Z,87.37
2022-10-20T00:23:34.733Z,87.41
2022-10-20T00:23:44.749Z,87.37
2022-10-20T00:23:54.712Z,87.43
2022-10-20T00:24:04.722Z,87.55
2022-10-20T00:24:16.171Z,87.45
2022-10-20T00:24:24.722Z,87.60
2022-10-20T00:24:35.699Z,87.45
2022-10-20T00:24:46.160Z,87.71
2022-10-20T00:24:54.710Z,87.65
2022-10-20T00:25:04.719Z,87.52
2022-10-20T00:25:14.724Z,87.60
2022-10-20T00:25:24.888Z,87.66
2022-10-20T00:25:34.691Z,87.63
2022-10-20T00:25:46.163Z,87.68
2022-10-20T00:25:54.739Z,87.74
2022-10-20T00:26:06.165Z,87.67
2022-10-20T00:26:16.152Z,87.77
2022-10-20T00:26:26.156Z,87.75
2022-10-20T00:26:36.140Z,87.78
2022-10-20T00:26:44.708Z,87.75
2022-10-20T00:26:56.162Z,87.66
2022-10-20T00:27:06.143Z,87.77
2022-10-20T00:27:14.690Z,87.73
2022-10-20T00:27:24.692Z,87.64
2022-10-20T00:27:36.214Z,87.66
2022-10-20T00:27:46.153Z,87.73
2022-10-20T00:27:54.771Z,87.78
2022-10-20T00:28:04.703Z,87.69
2022-10-20T00:28:16.130Z,87.71
2022-10-20T00:28:25.550Z,87.79
2022-10-20T00:28:34.680Z,87.74
2022-10-20T00:28:46.143Z,87.73
2022-10-20T00:28:54.691Z,87.79
2022-10-20T00:29:06.223Z,87.74
2022-10-20T00:29:16.139Z,87.73
2022-10-20T00:29:25.501Z,87.69
2022-10-20T00:29:36.120Z,87.70
2022-10-20T00:29:44.672Z,87.68
2022-10-20T00:29:56.145Z,87.61
2022-10-20T00:30:06.136Z,87.69
2022-10-20T00:30:15.675Z,87.69
2022-10-20T00:30:25.719Z,87.67
2022-10-20T00:30:34.667Z,87.68
2022-10-20T00:30:44.711Z,87.63
2022-10-20T00:30:56.141Z,87.66
2022-10-20T00:31:04.651Z,87.70
2022-10-20T00:31:14.690Z,87.63
2022-10-20T00:31:24.681Z,87.66
2022-10-20T00:31:36.142Z,87.64
2022-10-20T00:31:46.119Z,87.67
2022-10-20T00:31:55.218Z,87.58
2022-10-20T00:32:04.660Z,87.56
2022-10-20T00:32:14.651Z,87.47
2022-10-20T00:32:26.139Z,87.46
2022-10-20T00:32:34.844Z,87.48
2022-10-20T00:32:45.172Z,87.37
2022-10-20T00:32:54.923Z,87.33
2022-10-20T00:33:04.813Z,87.34
2022-10-20T00:33:14.654Z,87.31
2022-10-20T00:33:26.111Z,87.31
2022-10-20T00:33:35.243Z,87.37
2022-10-20T00:33:46.081Z,87.34
2022-10-20T00:33:55.220Z,87.34
2022-10-20T00:34:05.260Z,87.34
2022-10-20T00:34:15.280Z,87.29
2022-10-20T00:34:25.590Z,87.29
2022-10-20T00:34:34.652Z,87.26
2022-10-20T00:34:46.092Z,87.20
2022-10-20T00:34:54.732Z,87.32
2022-10-20T00:35:04.643Z,87.21
2022-10-20T00:35:14.643Z,87.29
2022-10-20T00:35:24.651Z,87.19
2022-10-20T00:35:34.642Z,87.24
2022-10-20T00:35:44.659Z,87.27
2022-10-20T00:35:54.634Z,87.20
2022-10-20T00:36:04.640Z,87.20
2022-10-20T00:36:14.671Z,87.20
2022-10-20T00:36:24.734Z,87.13
2022-10-20T00:36:36.063Z,87.13
2022-10-20T00:36:48.847Z,87.23
2022-10-20T00:36:55.630Z,87.32
2022-10-20T00:37:06.084Z,87.28
2022-10-20T00:37:15.563Z,87.19
2022-10-20T00:37:24.663Z,87.10
2022-10-20T00:37:34.663Z,87.03
2022-10-20T00:37:46.052Z,86.95
2022-10-20T00:37:56.062Z,87.02
2022-10-20T00:38:04.634Z,87.00
2022-10-20T00:38:14.662Z,86.85
2022-10-20T00:38:24.646Z,86.94
2022-10-20T00:38:34.613Z,86.91
2022-10-20T00:38:44.628Z,86.89
2022-10-20T00:38:55.612Z,86.87
2022-10-20T00:39:04.621Z,86.91
2022-10-20T00:39:14.622Z,86.82
2022-10-20T00:39:25.559Z,86.82
2022-10-20T00:39:34.611Z,86.91
2022-10-20T00:39:46.081Z,86.85
2022-10-20T00:39:56.052Z,86.89
2022-10-20T00:40:05.554Z,86.90
2022-10-20T00:40:14.610Z,86.88
2022-10-20T00:40:26.085Z,86.81
2022-10-20T00:40:36.044Z,86.93
2022-10-20T00:40:46.057Z,86.89
2022-10-20T00:40:56.043Z,86.87
2022-10-20T00:41:06.094Z,86.83
2022-10-20T00:41:16.052Z,86.81
2022-10-20T00:41:26.051Z,86.87
2022-10-20T00:41:36.033Z,86.80
2022-10-20T00:41:46.044Z,86.86
2022-10-20T00:41:54.604Z,86.79
2022-10-20T00:42:04.596Z,86.76
2022-10-20T00:42:16.044Z,86.77
2022-10-20T00:42:26.070Z,86.86
2022-10-20T00:42:34.867Z,86.82
2022-10-20T00:42:44.610Z,86.78
2022-10-20T00:42:54.593Z,86.80
2022-10-20T00:43:05.553Z,86.86
2022-10-20T00:43:15.447Z,86.85
2022-10-20T00:43:24.583Z,86.84
2022-10-20T00:43:36.035Z,86.82
2022-10-20T00:43:44.603Z,86.89
2022-10-20T00:43:56.042Z,86.87
2022-10-20T00:44:06.022Z,86.88
2022-10-20T00:44:14.573Z,86.86
2022-10-20T00:44:24.575Z,86.80
2022-10-20T00:44:34.574Z,86.84
2022-10-20T00:44:46.040Z,86.90
2022-10-20T00:44:54.563Z,86.93
2022-10-20T00:45:04.591Z,86.84
2022-10-20T00:45:14.574Z,86.93
2022-10-20T00:45:24.593Z,86.94
2022-10-20T00:45:36.015Z,86.94
2022-10-20T00:45:45.524Z,87.08
2022-10-20T00:45:55.102Z,87.01
2022-10-20T00:46:04.551Z,86.98
2022-10-20T00:46:15.480Z,86.94
2022-10-20T00:46:26.522Z,87.00
2022-10-20T00:46:35.882Z,87.26
2022-10-20T00:46:45.314Z,87.12
2022-10-20T00:46:54.862Z,87.08
2022-10-20T00:47:05.261Z,87.03
2022-10-20T00:47:15.984Z,87.00
2022-10-20T00:47:26.004Z,87.01
2022-10-20T00:47:36.058Z,87.05
2022-10-20T00:47:56.005Z,87.01
2022-10-20T00:48:05.990Z,87.06
2022-10-20T00:48:14.544Z,87.03
2022-10-20T00:48:24.582Z,86.97
2022-10-20T00:48:35.993Z,86.98
2022-10-20T00:48:46.005Z,87.07
2022-10-20T00:48:55.993Z,87.06
2022-10-20T00:49:04.574Z,87.02
2022-10-20T00:49:14.636Z,86.95
2022-10-20T00:49:24.527Z,87.07
2022-10-20T00:49:35.473Z,86.97
2022-10-20T00:49:45.995Z,87.02
2022-10-20T00:49:55.329Z,87.00
2022-10-20T00:50:04.748Z,86.95
2022-10-20T00:50:14.543Z,86.94
2022-10-20T00:50:24.545Z,86.93
2022-10-20T00:50:35.512Z,86.92
2022-10-20T00:50:44.525Z,86.98
2022-10-20T00:50:55.965Z,86.92
2022-10-20T00:51:05.464Z,87.03
2022-10-20T00:51:14.563Z,86.97
2022-10-20T00:51:24.524Z,86.98
2022-10-20T00:51:35.413Z,86.99
2022-10-20T00:51:45.984Z,86.97
2022-10-20T00:51:55.972Z,86.98
2022-10-20T00:52:05.365Z,86.95
2022-10-20T00:52:14.524Z,86.94
2022-10-20T00:52:24.517Z,86.89
2022-10-20T00:52:35.545Z,86.90
2022-10-20T00:52:44.514Z,87.01
2022-10-20T00:52:54.595Z,86.91
2022-10-20T00:53:05.273Z,86.97
2022-10-20T00:53:14.543Z,86.98
2022-10-20T00:53:25.965Z,86.91
2022-10-20T00:53:34.680Z,87.05
2022-10-20T00:53:45.946Z,86.95
2022-10-20T00:53:55.961Z,87.05
2022-10-20T00:54:04.493Z,87.02
2022-10-20T00:54:14.508Z,86.97
2022-10-20T00:54:25.974Z,87.03
2022-10-20T00:54:35.447Z,87.13
2022-10-20T00:54:45.967Z,87.10
2022-10-20T00:54:54.505Z,87.07
2022-10-20T00:55:05.335Z,87.01
2022-10-20T00:55:14.516Z,87.05
2022-10-20T00:55:25.957Z,87.03
2022-10-20T00:55:34.534Z,87.13
2022-10-20T00:55:44.486Z,87.11
2022-10-20T00:55:55.945Z,87.11
2022-10-20T00:56:04.518Z,87.19
2022-10-20T00:56:15.476Z,87.15
2022-10-20T00:56:25.961Z,87.21
2022-10-20T00:56:35.925Z,87.25
2022-10-20T00:56:45.946Z,87.17
2022-10-20T00:56:54.506Z,87.23
2022-10-20T00:57:05.927Z,87.15
2022-10-20T00:57:15.950Z,87.25
2022-10-20T00:57:24.473Z,87.20
2022-10-20T00:57:36.385Z,87.19
2022-10-20T00:57:44.609Z,87.28
2022-10-20T00:57:54.475Z,87.16
2022-10-20T00:58:05.961Z,87.16
2022-10-20T00:58:15.936Z,87.23
2022-10-20T00:58:24.767Z,87.24
2022-10-20T00:58:34.705Z,87.12
2022-10-20T00:58:44.460Z,87.11
2022-10-20T00:58:55.929Z,87.12
2022-10-20T00:59:04.479Z,87.21
2022-10-20T00:59:15.948Z,87.10
2022-10-20T00:59:24.466Z,87.16
2022-10-20T00:59:34.459Z,87.04
2022-10-20T00:59:44.477Z,87.08
2022-10-20T00:59:55.925Z,87.09
2022-10-20T01:00:04.816Z,87.16
2022-10-20T01:00:15.909Z,87.04
2022-10-20T01:00:24.944Z,87.04
2022-10-20T01:00:34.828Z,86.98
2022-10-20T01:00:45.896Z,86.98
2022-10-20T01:00:54.886Z,86.98
2022-10-20T01:01:04.866Z,86.96
2022-10-20T01:01:14.522Z,86.91
2022-10-20T01:01:24.851Z,86.89
2022-10-20T01:01:34.963Z,86.91
2022-10-20T01:01:45.912Z,86.94
2022-10-20T01:01:55.080Z,86.89
2022-10-20T01:02:04.467Z,86.85
2022-10-20T01:02:14.965Z,86.81
2022-10-20T01:02:24.426Z,86.80
2022-10-20T01:02:35.916Z,86.76
2022-10-20T01:02:44.436Z,86.81
2022-10-20T01:02:55.005Z,86.70
2022-10-20T01:03:05.908Z,86.79
2022-10-20T01:03:14.446Z,86.79
2022-10-20T01:03:24.640Z,86.72
2022-10-20T01:03:34.477Z,86.71
2022-10-20T01:03:45.909Z,86.70
2022-10-20T01:03:54.451Z,86.74
2022-10-20T01:04:05.236Z,86.66
2022-10-20T01:04:15.886Z,86.69
2022-10-20T01:04:24.431Z,86.71
2022-10-20T01:04:35.887Z,86.58
2022-10-20T01:04:45.892Z,86.66
2022-10-20T01:04:54.436Z,86.65
2022-10-20T01:05:04.436Z,86.49
2022-10-20T01:05:15.886Z,86.49
2022-10-20T01:05:25.867Z,86.53
2022-10-20T01:05:35.877Z,86.51
2022-10-20T01:05:45.907Z,86.45
2022-10-20T01:05:54.528Z,86.46
2022-10-20T01:06:05.365Z,86.32
2022-10-20T01:06:14.514Z,86.42
2022-10-20T01:06:25.481Z,86.35
2022-10-20T01:06:35.907Z,86.36
2022-10-20T01:06:45.367Z,86.38
2022-10-20T01:06:55.876Z,86.34
2022-10-20T01:07:05.876Z,86.43
2022-10-20T01:07:15.187Z,86.46
2022-10-20T01:07:25.877Z,86.35
2022-10-20T01:07:34.969Z,86.44
2022-10-20T01:07:45.399Z,86.45
2022-10-20T01:07:54.408Z,86.44
2022-10-20T01:08:05.867Z,86.41
2022-10-20T01:08:15.348Z,86.49
2022-10-20T01:08:25.929Z,86.48
2022-10-20T01:08:35.907Z,86.41
2022-10-20T01:08:45.337Z,86.43
2022-10-20T01:08:55.924Z,86.34
2022-10-20T01:09:05.941Z,86.35
2022-10-20T01:09:15.256Z,86.33
2022-10-20T01:09:24.735Z,86.25
2022-10-20T01:09:35.845Z,86.24
2022-10-20T01:09:45.206Z,86.31
2022-10-20T01:09:55.867Z,86.29
2022-10-20T01:10:05.858Z,86.28
2022-10-20T01:10:14.426Z,86.22
2022-10-20T01:10:24.388Z,86.08
2022-10-20T01:10:34.407Z,86.14
2022-10-20T01:10:45.864Z,86.12
2022-10-20T01:10:55.839Z,86.23
2022-10-20T01:11:04.378Z,86.15
2022-10-20T01:11:14.398Z,86.02
2022-10-20T01:11:25.298Z,86.04
2022-10-20T01:11:34.387Z,86.12
2022-10-20T01:11:45.349Z,86.05
2022-10-20T01:11:54.377Z,86.10
2022-10-20T01:12:05.850Z,86.01
2022-10-20T01:12:14.896Z,86.16
2022-10-20T01:12:25.825Z,86.04
2022-10-20T01:12:35.847Z,86.09
2022-10-20T01:12:45.844Z,86.09
2022-10-20T01:12:54.388Z,86.08
2022-10-20T01:13:05.878Z,86.00
2022-10-20T01:13:15.840Z,86.06
2022-10-20T01:13:24.390Z,86.04
2022-10-20T01:13:35.852Z,85.96
2022-10-20T01:13:45.799Z,85.96
2022-10-20T01:13:54.386Z,85.94
2022-10-20T01:14:05.298Z,85.87
2022-10-20T01:14:15.818Z,85.93
2022-10-20T01:14:25.828Z,85.94
2022-10-20T01:14:35.819Z,85.84
2022-10-20T01:14:44.357Z,85.88
2022-10-20T01:14:54.375Z,85.77
2022-10-20T01:15:04.992Z,85.81
2022-10-20T01:15:15.381Z,85.82
2022-10-20T01:15:25.840Z,85.88
2022-10-20T01:15:35.800Z,85.84
2022-10-20T01:15:44.368Z,85.78
2022-10-20T01:15:54.389Z,85.73
2022-10-20T01:16:04.338Z,85.76
2022-10-20T01:16:15.818Z,85.70
2022-10-20T01:16:25.848Z,85.78
2022-10-20T01:16:34.339Z,85.76
2022-10-20T01:16:45.307Z,85.71
2022-10-20T01:16:54.359Z,85.69
2022-10-20T01:17:05.810Z,85.62
2022-10-20T01:17:14.358Z,85.75
2022-10-20T01:17:24.692Z,85.68
2022-10-20T01:17:34.649Z,85.71
2022-10-20T01:17:45.802Z,85.71
2022-10-20T01:17:54.342Z,85.72
2022-10-20T01:18:04.358Z,85.69
2022-10-20T01:18:15.819Z,85.71
2022-10-20T01:18:24.328Z,85.82
2022-10-20T01:18:34.728Z,85.71
2022-10-20T01:18:45.769Z,85.71
2022-10-20T01:18:55.779Z,85.79
2022-10-20T01:19:05.779Z,85.73
2022-10-20T01:19:14.339Z,85.68
2022-10-20T01:19:25.289Z,85.65
2022-10-20T01:19:34.738Z,85.77
2022-10-20T01:19:44.318Z,85.73
2022-10-20T01:19:54.349Z,85.71
2022-10-20T01:20:05.799Z,85.69
2022-10-20T01:20:15.779Z,85.73
2022-10-20T01:20:25.789Z,85.71
2022-10-20T01:20:34.329Z,85.75
2022-10-20T01:20:45.779Z,85.64
2022-10-20T01:20:55.789Z,85.75
2022-10-20T01:21:04.856Z,85.73
2022-10-20T01:21:14.311Z,85.58
2022-10-20T01:21:25.110Z,85.62
2022-10-20T01:21:34.319Z,85.63
2022-10-20T01:21:44.334Z,85.65
2022-10-20T01:22:31.711Z,86.17
2022-10-20T01:22:43.137Z,86.18
2022-10-20T01:22:51.690Z,86.06
2022-10-20T01:23:03.146Z,85.97
2022-10-20T01:23:13.137Z,86.08
2022-10-20T01:23:22.647Z,86.10
2022-10-20T01:23:31.685Z,86.11
2022-10-20T01:23:41.697Z,86.08
2022-10-20T01:23:53.117Z,86.18
2022-10-20T01:24:01.740Z,86.21
2022-10-20T01:24:12.538Z,86.16
2022-10-20T01:24:23.229Z,86.20
2022-10-20T01:24:33.158Z,86.33
2022-10-20T01:24:43.135Z,86.27
2022-10-20T01:24:53.127Z,86.31
2022-10-20T01:25:01.700Z,86.37
2022-10-20T01:25:11.679Z,86.33
2022-10-20T01:25:23.141Z,86.40
2022-10-20T01:25:31.676Z,86.52
2022-10-20T01:25:43.109Z,86.38
2022-10-20T01:25:53.107Z,86.51
2022-10-20T01:26:02.629Z,86.53
2022-10-20T01:26:11.667Z,86.49
2022-10-20T01:26:23.129Z,86.47
2022-10-20T01:26:32.628Z,86.56
2022-10-20T01:26:41.667Z,86.52
2022-10-20T01:26:53.128Z,86.47
2022-10-20T01:27:03.107Z,86.57
2022-10-20T01:27:11.677Z,86.55
2022-10-20T01:27:23.107Z,86.50
2022-10-20T01:27:31.655Z,86.57
2022-10-20T01:27:43.118Z,86.45
2022-10-20T01:27:53.102Z,86.58
2022-10-20T01:28:03.123Z,86.50
2022-10-20T01:28:11.706Z,86.49
2022-10-20T01:28:23.110Z,86.43
2022-10-20T01:28:33.117Z,86.46
2022-10-20T01:28:42.630Z,86.48
2022-10-20T01:28:53.124Z,86.43
2022-10-20T01:29:03.087Z,86.43
2022-10-20T01:29:13.088Z,86.40
2022-10-20T01:29:21.639Z,86.37
2022-10-20T01:29:32.619Z,86.25
2022-10-20T01:29:41.854Z,86.33
2022-10-20T01:29:51.637Z,86.27
2022-10-20T01:30:01.680Z,86.30
2022-10-20T01:30:12.468Z,86.25
2022-10-20T01:30:21.657Z,86.35
2022-10-20T01:30:33.098Z,86.23
2022-10-20T01:30:41.638Z,86.31
2022-10-20T01:30:53.078Z,86.14
2022-10-20T01:31:03.091Z,86.27
2022-10-20T01:31:12.628Z,86.20
2022-10-20T01:31:23.084Z,86.16
2022-10-20T01:31:32.057Z,86.12
2022-10-20T01:31:41.609Z,86.06
2022-10-20T01:31:52.228Z,86.06
2022-10-20T01:32:02.270Z,86.12
2022-10-20T01:32:12.197Z,86.12
2022-10-20T01:32:21.609Z,86.11
2022-10-20T01:32:31.635Z,86.09
2022-10-20T01:32:43.078Z,86.12
2022-10-20T01:32:53.069Z,86.21
2022-10-20T01:33:03.058Z,86.14
2022-10-20T01:33:13.064Z,86.08
2022-10-20T01:33:22.638Z,86.12
2022-10-20T01:33:31.640Z,85.98
2022-10-20T01:33:42.131Z,85.98
2022-10-20T01:33:52.376Z,86.03
2022-10-20T01:34:03.059Z,86.04
2022-10-20T01:34:13.050Z,86.06
2022-10-20T01:34:22.726Z,86.05
2022-10-20T01:34:33.060Z,85.99
2022-10-20T01:34:43.053Z,85.98
2022-10-20T01:34:53.159Z,85.92
2022-10-20T01:35:01.607Z,85.92
2022-10-20T01:35:13.068Z,85.80
2022-10-20T01:35:23.071Z,85.90
2022-10-20T01:35:33.048Z,85.90
2022-10-20T01:35:43.058Z,85.87
2022-10-20T01:35:53.045Z,85.85
2022-10-20T01:36:03.038Z,85.92
2022-10-20T01:36:13.051Z,85.83
2022-10-20T01:36:23.049Z,85.88
2022-10-20T01:36:33.068Z,85.83
2022-10-20T01:36:43.032Z,85.83
2022-10-20T01:36:51.610Z,85.79
2022-10-20T01:37:01.603Z,85.75
2022-10-20T01:37:19.765Z,85.75
2022-10-20T01:37:33.968Z,86.07
2022-10-20T01:37:40.700Z,86.16
2022-10-20T01:37:49.899Z,86.32
2022-10-20T01:37:53.108Z,86.38
2022-10-20T01:38:04.080Z,86.19
2022-10-20T01:38:14.116Z,86.17
2022-10-20T01:38:24.085Z,86.15
2022-10-20T01:38:33.589Z,86.14
2022-10-20T01:38:44.355Z,86.17
2022-10-20T01:38:54.569Z,86.24
2022-10-20T01:39:04.440Z,86.39
2022-10-20T01:39:14.090Z,86.28
2022-10-20T01:39:24.061Z,86.26
2022-10-20T01:39:34.079Z,86.27
2022-10-20T01:39:43.577Z,86.21
2022-10-20T01:39:54.089Z,86.25
2022-10-20T01:40:04.061Z,86.28
2022-10-20T01:40:13.589Z,86.27
2022-10-20T01:40:24.071Z,86.29
2022-10-20T01:40:34.062Z,86.30
2022-10-20T01:40:44.080Z,86.35
2022-10-20T01:40:53.571Z,86.30
2022-10-20T01:41:02.609Z,86.32
2022-10-20T01:41:12.620Z,86.20
2022-10-20T01:41:23.446Z,86.23
2022-10-20T01:41:32.619Z,86.31
2022-10-20T01:41:44.080Z,86.24
2022-10-20T01:41:54.071Z,86.26
2022-10-20T01:42:04.042Z,86.26
2022-10-20T01:42:12.599Z,86.22
2022-10-20T01:42:22.608Z,86.13
2022-10-20T01:42:44.170Z,86.29
2022-10-20T01:42:53.688Z,86.25
2022-10-20T01:43:04.180Z,86.23
2022-10-20T01:43:12.753Z,86.25
2022-10-20T01:43:22.731Z,86.22
2022-10-20T01:43:34.163Z,86.23
2022-10-20T01:43:44.180Z,86.28
2022-10-20T01:43:53.697Z,86.24
2022-10-20T01:44:04.170Z,86.20
2022-10-20T01:44:12.723Z,86.16
2022-10-20T01:44:23.670Z,86.11
2022-10-20T01:44:32.760Z,86.16
2022-10-20T01:44:44.160Z,86.10
2022-10-20T01:44:53.650Z,86.14
2022-10-20T01:45:02.930Z,86.17
2022-10-20T01:45:14.171Z,86.09
2022-10-20T01:45:24.144Z,86.13
2022-10-20T01:45:33.562Z,86.04
2022-10-20T01:45:44.159Z,86.00
2022-10-20T01:45:54.150Z,86.06
2022-10-20T01:46:03.640Z,86.04
2022-10-20T01:46:13.381Z,85.95
2022-10-20T01:46:24.152Z,85.97
2022-10-20T01:46:34.141Z,86.00
2022-10-20T01:46:42.730Z,85.94
2022-10-20T01:46:54.161Z,85.89
2022-10-20T01:47:03.677Z,85.92
2022-10-20T01:47:12.720Z,85.83
2022-10-20T01:47:24.152Z,85.80
2022-10-20T01:47:34.342Z,85.86
2022-10-20T01:47:43.609Z,85.87
2022-10-20T01:47:54.161Z,85.81
2022-10-20T01:48:04.202Z,85.81
2022-10-20T01:48:14.132Z,85.77
2022-10-20T01:48:22.696Z,85.74
2022-10-20T01:48:32.693Z,85.71
2022-10-20T01:48:42.691Z,85.72
2022-10-20T01:48:52.692Z,85.75
2022-10-20T01:49:02.712Z,85.78
2022-10-20T01:49:12.691Z,85.79
2022-10-20T01:49:22.721Z,85.83
2022-10-20T01:49:32.691Z,85.87
2022-10-20T01:49:44.138Z,85.86
2022-10-20T01:49:52.682Z,86.02
2022-10-20T01:50:02.680Z,85.97
2022-10-20T01:50:14.148Z,86.03
2022-10-20T01:50:24.110Z,86.15
2022-10-20T01:50:34.111Z,86.14
2022-10-20T01:50:43.632Z,86.13
2022-10-20T01:50:54.228Z,86.05
2022-10-20T01:51:02.701Z,86.06
2022-10-20T01:51:14.122Z,85.95
2022-10-20T01:51:24.102Z,86.03
2022-10-20T01:51:32.723Z,85.96
2022-10-20T01:51:52.665Z,85.93
2022-10-20T01:52:02.680Z,85.91
2022-10-20T01:52:14.122Z,85.91
2022-10-20T01:52:22.664Z,85.95
2022-10-20T01:52:34.501Z,85.87
2022-10-20T01:52:44.101Z,85.97
2022-10-20T01:52:52.783Z,85.91
2022-10-20T01:53:02.641Z,85.87
2022-10-20T01:53:12.681Z,85.88
2022-10-20T01:53:22.651Z,85.92
2022-10-20T01:53:34.121Z,85.94
2022-10-20T01:53:44.102Z,85.99
2022-10-20T01:53:53.574Z,85.99
2022-10-20T01:54:02.823Z,85.94
2022-10-20T01:54:13.871Z,85.93
2022-10-20T01:54:24.591Z,85.98
2022-10-20T01:54:34.085Z,85.97
2022-10-20T01:54:42.639Z,85.97
2022-10-20T01:54:54.093Z,85.95
2022-10-20T01:55:04.093Z,86.04
2022-10-20T01:55:14.082Z,85.99
2022-10-20T01:55:24.504Z,85.98
2022-10-20T01:55:33.610Z,85.96
2022-10-20T01:55:44.125Z,85.91
2022-10-20T01:55:52.623Z,85.94
2022-10-20T01:56:02.641Z,85.89
2022-10-20T01:56:14.112Z,85.89
2022-10-20T01:56:22.633Z,86.00
2022-10-20T01:56:32.643Z,85.87
2022-10-20T01:56:43.625Z,85.93
2022-10-20T01:56:56.773Z,85.97
2022-10-20T01:57:04.084Z,86.01
2022-10-20T01:57:14.113Z,86.05
2022-10-20T01:57:22.634Z,85.97
2022-10-20T01:57:32.642Z,85.91
2022-10-20T01:57:44.121Z,85.88
2022-10-20T01:57:54.104Z,85.91
2022-10-20T01:58:02.629Z,85.84
2022-10-20T01:58:12.730Z,85.83
2022-10-20T01:58:22.613Z,85.82
2022-10-20T01:58:34.064Z,85.80
2022-10-20T01:58:44.114Z,85.88
2022-10-20T01:58:52.654Z,85.85
2022-10-20T01:59:02.631Z,85.75
2022-10-20T01:59:12.663Z,85.77
2022-10-20T01:59:22.613Z,85.76
2022-10-20T01:59:34.063Z,85.74
2022-10-20T01:59:44.132Z,85.75
2022-10-20T01:59:52.606Z,85.83
2022-10-20T02:00:02.624Z,85.74
2022-10-20T02:00:12.633Z,85.77
2022-10-20T02:00:22.612Z,85.80
2022-10-20T02:00:34.055Z,85.84
2022-10-20T02:00:44.135Z,85.95
2022-10-20T02:00:52.652Z,85.86
2022-10-20T02:01:04.068Z,85.77
2022-10-20T02:01:12.709Z,85.80
2022-10-20T02:01:22.771Z,85.73
2022-10-20T02:01:34.103Z,85.77
2022-10-20T02:01:44.093Z,85.81
2022-10-20T02:01:52.778Z,85.83
2022-10-20T02:02:02.783Z,85.71
2022-10-20T02:02:14.517Z,85.79
2022-10-20T02:02:22.645Z,85.85
2022-10-20T02:02:33.033Z,85.71
2022-10-20T02:02:42.705Z,85.77
2022-10-20T02:02:52.875Z,85.75
2022-10-20T02:03:02.583Z,85.76
2022-10-20T02:03:14.045Z,85.77
2022-10-20T02:03:22.757Z,85.82
2022-10-20T02:03:32.885Z,85.68
2022-10-20T02:03:44.036Z,85.71
2022-10-20T02:03:52.863Z,85.75
2022-10-20T02:04:04.015Z,85.63
2022-10-20T02:04:14.039Z,85.76
2022-10-20T02:04:22.793Z,85.75
2022-10-20T02:04:32.906Z,85.71
2022-10-20T02:04:42.601Z,85.71
2022-10-20T02:04:53.575Z,85.71
2022-10-20T02:05:02.893Z,85.79
2022-10-20T02:05:12.593Z,85.79
2022-10-20T02:05:24.044Z,85.75
2022-10-20T02:05:34.005Z,85.82
2022-10-20T02:05:42.575Z,85.76
2022-10-20T02:05:52.926Z,85.75
2022-10-20T02:06:02.569Z,85.73
2022-10-20T02:06:12.574Z,85.75
2022-10-20T02:06:24.027Z,85.72
2022-10-20T02:06:34.022Z,85.79
2022-10-20T02:06:43.515Z,85.74
2022-10-20T02:06:52.574Z,85.70
2022-10-20T02:07:04.036Z,85.63
2022-10-20T02:07:12.564Z,85.66
2022-10-20T02:07:22.585Z,85.61
2022-10-20T02:07:32.555Z,85.60
2022-10-20T02:07:44.005Z,85.55
2022-10-20T02:07:54.004Z,85.65
2022-10-20T02:08:04.007Z,85.58
2022-10-20T02:08:13.502Z,85.53
2022-10-20T02:08:24.004Z,85.45
2022-10-20T02:08:32.822Z,85.51
2022-10-20T02:08:44.036Z,85.41
2022-10-20T02:08:52.612Z,85.50
2022-10-20T02:09:02.756Z,85.43
2022-10-20T02:09:13.974Z,85.48
2022-10-20T02:09:23.988Z,85.58
2022-10-20T02:09:32.564Z,85.52
2022-10-20T02:09:42.562Z,85.48
2022-10-20T02:10:04.116Z,85.65
2022-10-20T02:10:13.495Z,85.54